Time;durP1;ratioP1;P1;durP2;ratioP2;P2;SDS_P1;SDS_P2;PMS_P1;PMS_P2;Temp;Humidity;BMP_temperature;BMP_pressure;BME280_temperature;BME280_humidity;BME280_pressure;Samples;Min_cycle;Max_cycle;Signal;HPM_P1;HPM_P2
2022/11/26 00:00:24;;;;;;;7.95;4.07;;;;;;;-3.50;66.21;101388.78;6101531;23;20371;-80
2022/11/26 00:02:52;;;;;;;6.90;3.33;;;;;;;-3.29;65.78;101408.94;6127636;23;20024;-81
2022/11/26 00:05:19;;;;;;;6.53;4.00;;;;;;;-3.31;66.58;101401.22;6102683;23;20018;-82
2022/11/26 00:08:00;;;;;;;5.88;3.55;;;;;;;-3.41;65.94;101383.47;6103135;23;20383;-82
2022/11/26 00:10:29;;;;;;;5.15;3.40;;;;;;;-3.45;65.67;101392.56;6103501;23;20029;-80
2022/11/26 00:12:56;;;;;;;5.55;3.30;;;;;;;-3.31;66.60;101406.31;6055597;23;20017;-83
2022/11/26 00:15:30;;;;;;;5.90;3.42;;;;;;;-3.20;66.41;101414.72;6104282;23;20078;-81
2022/11/26 00:17:57;;;;;;;5.10;2.50;;;;;;;-3.45;66.30;101372.19;6136219;23;20018;-81
2022/11/26 00:20:29;;;;;;;5.25;2.83;;;;;;;-3.50;66.33;101353.16;6103474;23;20028;-83
2022/11/26 00:23:00;;;;;;;5.45;2.90;;;;;;;-3.25;65.40;101390.59;6103680;23;20021;-83
2022/11/26 00:25:32;;;;;;;6.40;3.30;;;;;;;-3.37;65.82;101396.53;6102624;23;20018;-82
2022/11/26 00:28:01;;;;;;;10.02;2.63;;;;;;;-3.37;65.22;101419.44;6101549;23;20018;-81
2022/11/26 00:30:28;;;;;;;6.75;3.15;;;;;;;-3.42;65.15;101420.75;6102292;23;21916;-80
2022/11/26 00:32:55;;;;;;;7.57;3.58;;;;;;;-3.41;66.32;101417.44;6127148;23;20018;-83
2022/11/26 00:35:22;;;;;;;6.57;3.55;;;;;;;-3.41;66.35;101389.44;6100821;23;20072;-84
2022/11/26 00:37:52;;;;;;;5.93;3.38;;;;;;;-3.31;66.35;101405.41;6077161;23;20499;-79
2022/11/26 00:40:24;;;;;;;4.72;2.72;;;;;;;-3.30;65.85;101409.72;6077678;23;20018;-80
2022/11/26 00:42:53;;;;;;;6.85;3.38;;;;;;;-3.56;66.29;101385.78;6078039;23;20364;-82
2022/11/26 00:45:26;;;;;;;5.53;3.30;;;;;;;-3.69;66.99;101353.47;6127791;23;20018;-80
2022/11/26 00:47:53;;;;;;;5.90;3.42;;;;;;;-3.43;66.87;101365.56;6103817;23;20476;-82
2022/11/26 00:50:22;;;;;;;7.15;3.53;;;;;;;-3.31;66.92;101374.84;6132114;23;20421;-83
2022/11/26 00:52:54;;;;;;;5.43;3.10;;;;;;;-3.08;66.55;101415.59;6058425;23;20101;-83
2022/11/26 00:55:31;;;;;;;5.70;3.20;;;;;;;-3.20;66.27;101420.69;6129781;23;20018;-81
2022/11/26 00:57:59;;;;;;;6.32;3.30;;;;;;;-3.24;66.55;101405.09;6105000;23;20018;-81
2022/11/26 01:00:29;;;;;;;9.35;4.63;;;;;;;-3.16;67.21;101390.38;6136089;23;20351;-80
2022/11/26 01:02:56;;;;;;;7.95;5.55;;;;;;;-3.11;66.68;101354.25;6108260;23;20106;-83
2022/11/26 01:05:24;;;;;;;9.93;6.38;;;;;;;-2.69;66.33;101409.81;6104249;23;20092;-81
2022/11/26 01:07:51;;;;;;;6.13;3.67;;;;;;;-2.82;64.89;101393.66;6102411;23;20045;-81
2022/11/26 01:10:24;;;;;;;6.00;3.72;;;;;;;-3.08;65.34;101387.59;6101201;23;20491;-82
2022/11/26 01:12:51;;;;;;;4.78;3.65;;;;;;;-3.24;65.59;101387.25;6102440;23;20077;-83
2022/11/26 01:15:20;;;;;;;5.85;3.10;;;;;;;-3.15;65.22;101420.16;6078339;23;20018;-83
2022/11/26 01:17:46;;;;;;;4.80;3.60;;;;;;;-3.27;65.91;101393.00;6101834;23;20025;-84
2022/11/26 01:20:23;;;;;;;5.88;3.42;;;;;;;-2.98;65.93;101429.03;6102200;23;20109;-85
2022/11/26 01:22:53;;;;;;;7.05;4.20;;;;;;;-3.21;65.51;101390.91;6077518;23;20026;-83
2022/11/26 01:25:20;;;;;;;7.75;3.90;;;;;;;-3.33;65.80;101378.19;6130430;23;20073;-79
2022/11/26 01:27:46;;;;;;;8.23;4.10;;;;;;;-3.35;66.29;101367.00;6085610;23;20038;-80
2022/11/26 01:30:18;;;;;;;5.60;3.70;;;;;;;-3.27;64.99;101382.81;6106820;23;20056;-80
2022/11/26 01:32:44;;;;;;;8.57;4.70;;;;;;;-2.98;65.91;101434.97;6086282;23;20081;-82
2022/11/26 01:35:11;;;;;;;4.82;2.70;;;;;;;-3.15;65.09;101410.84;6129584;23;20055;-81
2022/11/26 01:37:37;;;;;;;5.45;3.78;;;;;;;-3.18;66.29;101401.31;6102194;23;20057;-83
2022/11/26 01:40:22;;;;;;;7.53;4.45;;;;;;;-3.04;65.93;101402.31;6130061;23;20026;-81
2022/11/26 01:43:02;;;;;;;7.18;4.40;;;;;;;-3.09;66.59;101393.44;6035097;23;20022;-79
2022/11/26 01:45:28;;;;;;;5.65;3.45;;;;;;;-2.97;65.50;101402.72;6081688;23;20377;-81
2022/11/26 01:47:54;;;;;;;5.65;3.88;;;;;;;-2.88;66.18;101403.41;6102654;23;20046;-83
2022/11/26 01:50:27;;;;;;;5.50;3.22;;;;;;;-2.61;66.27;101421.44;6102271;23;20045;-81
2022/11/26 01:53:32;;;;;;;5.57;3.10;;;;;;;-2.78;64.98;101388.00;6103080;23;20033;-84
2022/11/26 01:56:04;;;;;;;6.15;3.78;;;;;;;-2.72;65.82;101395.19;6086510;23;20021;-83
2022/11/26 01:58:40;;;;;;;5.88;3.88;;;;;;;-2.41;66.04;101420.25;6077963;23;20022;-82
2022/11/26 02:01:07;;;;;;;7.15;4.07;;;;;;;-2.83;65.47;101351.13;6079250;23;20017;-83
2022/11/26 02:03:52;;;;;;;7.90;4.15;;;;;;;-2.63;64.82;101405.16;6101756;23;20408;-84
2022/11/26 02:06:25;;;;;;;7.82;3.53;;;;;;;-2.82;65.58;101357.97;6101753;23;20026;-82
2022/11/26 02:08:52;;;;;;;4.22;2.58;;;;;;;-2.58;65.30;101391.94;6077910;23;20021;-81
2022/11/26 02:11:20;;;;;;;5.60;3.47;;;;;;;-2.45;65.82;101403.88;6101267;23;20121;-80
2022/11/26 02:14:13;;;;;;;7.07;4.25;;;;;;;-2.42;65.17;101401.53;6105801;23;20495;-82
2022/11/26 02:16:47;;;;;;;7.15;4.45;;;;;;;-2.29;65.42;101413.47;6101825;23;20048;-86
2022/11/26 02:19:12;;;;;;;4.70;2.83;;;;;;;-2.32;64.53;101414.94;6101826;23;20507;-80
2022/11/26 02:21:46;;;;;;;8.88;5.50;;;;;;;-2.50;64.50;101423.06;6078288;23;20013;-82
2022/11/26 02:24:18;;;;;;;7.45;5.03;;;;;;;-2.68;65.11;101422.66;6077446;23;20021;-81
2022/11/26 02:27:20;;;;;;;8.60;4.60;;;;;;;-2.69;64.59;101410.69;6077611;23;20096;-80
2022/11/26 02:30:08;;;;;;;6.63;4.10;;;;;;;-2.59;64.55;101427.53;6071730;23;20038;-81
2022/11/26 02:32:58;;;;;;;6.97;4.15;;;;;;;-2.91;64.83;101434.66;6128608;23;20021;-86
2022/11/26 02:35:41;;;;;;;3.78;2.75;;;;;;;-2.91;64.42;101443.94;6086768;23;20123;-80
2022/11/26 02:38:13;;;;;;;5.30;3.45;;;;;;;-3.29;64.97;101398.78;6113521;23;20455;-82
2022/11/26 02:40:39;;;;;;;5.20;3.22;;;;;;;-3.33;65.74;101396.00;6112855;23;20013;-80
2022/11/26 02:43:05;;;;;;;4.40;2.85;;;;;;;-3.19;65.22;101411.38;6139126;23;20024;-80
2022/11/26 02:45:36;;;;;;;5.47;2.35;;;;;;;-3.12;64.53;101411.06;6115724;23;20081;-82
2022/11/26 02:48:04;;;;;;;11.98;5.95;;;;;;;-2.94;65.65;101420.78;6105270;23;20025;-84
2022/11/26 02:50:38;;;;;;;4.68;2.75;;;;;;;-2.59;65.77;101450.47;6126897;23;20353;-82
2022/11/26 02:53:06;;;;;;;3.63;2.20;;;;;;;-2.55;65.40;101444.81;6127840;23;20028;-82
2022/11/26 02:55:37;;;;;;;4.22;2.22;;;;;;;-2.55;65.20;101429.53;6102360;23;20024;-82
2022/11/26 02:58:04;;;;;;;4.85;2.88;;;;;;;-2.47;65.20;101446.22;6077893;23;21144;-86
2022/11/26 03:00:35;;;;;;;6.85;2.60;;;;;;;-2.80;64.88;101387.00;6127316;23;20420;-84
2022/11/26 03:03:24;;;;;;;5.68;2.60;;;;;;;-2.49;65.20;101421.41;6101616;23;20515;-82
2022/11/26 03:05:54;;;;;;;3.67;2.13;;;;;;;-2.56;64.71;101450.69;6102920;23;20021;-83
2022/11/26 03:08:28;;;;;;;2.95;1.67;;;;;;;-3.03;65.11;101387.91;6127370;23;20017;-82
2022/11/26 03:10:54;;;;;;;3.03;1.90;;;;;;;-2.79;64.73;101429.56;6101366;23;20337;-85
2022/11/26 03:13:21;;;;;;;3.40;1.90;;;;;;;-2.96;65.09;101404.50;6101968;23;20524;-78
2022/11/26 03:15:47;;;;;;;2.83;1.90;;;;;;;-3.19;64.23;101371.53;6101319;23;20072;-82
2022/11/26 03:18:13;;;;;;;4.43;1.88;;;;;;;-2.63;63.40;101463.78;6129145;23;20021;-83
2022/11/26 03:20:39;;;;;;;4.25;2.17;;;;;;;-2.78;64.31;101468.66;6105806;23;20049;-81
2022/11/26 03:23:08;;;;;;;8.32;2.10;;;;;;;-3.24;64.32;101400.00;6133251;23;20018;-83
2022/11/26 03:25:35;;;;;;;4.38;1.90;;;;;;;-2.92;63.69;101460.00;6108566;23;20156;-80
2022/11/26 03:28:01;;;;;;;4.47;1.88;;;;;;;-3.05;64.69;101461.69;6105827;23;20017;-79
2022/11/26 03:30:27;;;;;;;5.40;2.40;;;;;;;-3.06;64.52;101464.09;6101532;23;20021;-81
2022/11/26 03:32:53;;;;;;;4.47;2.20;;;;;;;-3.20;65.20;101445.28;6101870;23;20100;-83
2022/11/26 03:35:19;;;;;;;3.40;2.30;;;;;;;-3.08;65.09;101474.19;6083384;23;20025;-82
2022/11/26 03:37:45;;;;;;;3.83;2.50;;;;;;;-3.19;64.20;101458.13;6138536;23;20047;-82
2022/11/26 03:40:12;;;;;;;4.05;2.50;;;;;;;-3.19;64.47;101472.50;6112361;23;20119;-79
2022/11/26 03:42:38;;;;;;;4.60;1.85;;;;;;;-3.24;64.00;101476.41;6108381;23;20021;-80
2022/11/26 03:45:05;;;;;;;3.55;2.53;;;;;;;-3.44;64.24;101460.53;6079088;23;20156;-84
2022/11/26 03:47:31;;;;;;;2.78;2.13;;;;;;;-3.24;65.35;101479.81;6131798;23;20018;-81
2022/11/26 03:49:56;;;;;;;4.82;2.35;;;;;;;-3.29;65.43;101427.66;6110451;23;20028;-80
2022/11/26 03:52:22;;;;;;;4.45;2.70;;;;;;;-2.91;65.25;101477.97;6111760;23;20025;-80
2022/11/26 03:54:48;;;;;;;5.75;3.53;;;;;;;-3.43;65.38;101391.03;6110847;23;20038;-81
2022/11/26 03:57:15;;;;;;;2.85;2.13;;;;;;;-3.13;63.67;101432.22;6107979;23;20018;-79
2022/11/26 03:59:44;;;;;;;3.80;2.40;;;;;;;-3.23;64.93;101466.31;6113609;23;20022;-82
2022/11/26 04:02:10;;;;;;;3.47;2.50;;;;;;;-3.27;64.16;101474.50;6109973;23;20014;-80
2022/11/26 04:04:36;;;;;;;4.30;2.00;;;;;;;-3.47;63.31;101462.84;6104032;23;20108;-80
2022/11/26 04:07:02;;;;;;;3.88;2.58;;;;;;;-3.73;64.64;101436.31;6103044;23;20376;-81
2022/11/26 04:09:32;;;;;;;7.20;3.20;;;;;;;-3.55;65.23;101446.09;6079218;23;20029;-83
2022/11/26 04:11:59;;;;;;;3.75;2.33;;;;;;;-3.35;64.77;101455.22;6129016;23;20022;-83
2022/11/26 04:14:25;;;;;;;3.22;2.08;;;;;;;-3.10;64.09;101491.03;6104834;23;20021;-81
2022/11/26 04:16:51;;;;;;;3.13;2.25;;;;;;;-3.36;64.92;101464.50;6142478;23;20014;-80
2022/11/26 04:19:17;;;;;;;4.53;2.35;;;;;;;-3.49;64.93;101426.19;6134916;23;20050;-80
2022/11/26 04:21:43;;;;;;;4.70;2.10;;;;;;;-3.01;64.38;101493.34;6107118;23;20464;-81
2022/11/26 04:24:09;;;;;;;3.75;2.22;;;;;;;-3.19;63.92;101491.22;6082486;23;20534;-82
2022/11/26 04:26:35;;;;;;;3.78;1.98;;;;;;;-3.82;63.67;101411.09;6104884;23;20017;-84
2022/11/26 04:29:04;;;;;;;3.22;2.13;;;;;;;-3.75;64.54;101432.78;6103324;23;20041;-82
2022/11/26 04:31:31;;;;;;;3.45;2.13;;;;;;;-3.22;64.74;101493.53;6129464;23;20440;-81
2022/11/26 04:33:56;;;;;;;3.97;2.25;;;;;;;-3.25;63.82;101498.41;6104916;23;20017;-82
2022/11/26 04:36:23;;;;;;;5.53;2.25;;;;;;;-3.68;64.38;101467.19;6080924;23;20037;-84
2022/11/26 04:38:49;;;;;;;4.90;2.53;;;;;;;-3.81;63.96;101476.47;6105066;23;20021;-81
2022/11/26 04:41:19;;;;;;;5.03;2.75;;;;;;;-3.69;64.46;101496.88;6083528;23;20013;-80
2022/11/26 04:43:45;;;;;;;5.10;3.20;;;;;;;-3.69;64.86;101473.97;6129020;23;20360;-82
2022/11/26 04:46:11;;;;;;;6.63;3.60;;;;;;;-3.49;64.90;101495.81;6102211;23;20021;-80
2022/11/26 04:48:37;;;;;;;6.05;3.22;;;;;;;-3.25;65.28;101503.50;6117637;23;20081;-79
2022/11/26 04:51:03;;;;;;;4.93;3.08;;;;;;;-3.27;64.02;101489.75;6113023;23;20059;-79
2022/11/26 04:53:29;;;;;;;5.53;3.45;;;;;;;-3.24;64.11;101514.59;6076875;23;20080;-78
2022/11/26 04:55:55;;;;;;;4.85;3.10;;;;;;;-3.31;64.43;101518.34;6101417;23;20010;-81
2022/11/26 04:58:21;;;;;;;4.97;2.85;;;;;;;-3.28;64.38;101497.31;6101719;23;20041;-77
2022/11/26 05:00:48;;;;;;;5.70;3.10;;;;;;;-3.26;64.82;101476.25;6128446;23;20021;-82
2022/11/26 05:03:14;;;;;;;5.25;3.42;;;;;;;-3.00;64.39;101514.63;6101121;23;20018;-79
2022/11/26 05:05:40;;;;;;;5.55;4.07;;;;;;;-3.02;64.12;101501.75;6101922;23;20021;-80
2022/11/26 05:08:07;;;;;;;5.43;3.28;;;;;;;-3.03;63.90;101511.09;6101294;23;20103;-81
2022/11/26 05:10:34;;;;;;;3.97;2.67;;;;;;;-3.10;64.13;101503.75;6080464;23;20026;-81
2022/11/26 05:13:00;;;;;;;3.50;2.67;;;;;;;-3.22;62.85;101496.09;6105285;23;20033;-78
2022/11/26 05:15:26;;;;;;;4.85;3.17;;;;;;;-3.30;63.34;101519.22;6107384;23;20076;-80
2022/11/26 05:17:53;;;;;;;6.20;4.35;;;;;;;-3.43;64.38;101497.94;6127298;23;20096;-78
2022/11/26 05:20:19;;;;;;;11.23;5.38;;;;;;;-3.71;63.46;101478.03;6128385;23;20049;-79
2022/11/26 05:22:45;;;;;;;5.50;3.90;;;;;;;-3.57;63.92;101480.72;6137458;23;20018;-79
2022/11/26 05:25:11;;;;;;;12.32;6.40;;;;;;;-3.20;64.05;101522.56;6129035;23;20017;-78
2022/11/26 05:27:38;;;;;;;9.38;5.88;;;;;;;-3.42;63.77;101530.25;6102382;23;20101;-78
2022/11/26 05:30:06;;;;;;;6.93;3.78;;;;;;;-3.28;63.81;101527.88;6077369;23;20045;-79
2022/11/26 05:32:32;;;;;;;12.77;6.63;;;;;;;-3.38;64.52;101486.41;6129150;23;20085;-81
2022/11/26 05:34:58;;;;;;;12.30;5.95;;;;;;;-3.05;63.95;101529.56;6101386;23;20455;-80
2022/11/26 05:37:24;;;;;;;11.05;5.88;;;;;;;-3.21;63.70;101508.06;6126511;23;20018;-80
2022/11/26 05:39:50;;;;;;;11.13;6.45;;;;;;;-3.27;62.75;101516.91;6101293;23;20448;-81
2022/11/26 05:42:17;;;;;;;11.35;5.88;;;;;;;-3.37;63.15;101518.75;6077502;23;20014;-79
2022/11/26 05:44:44;;;;;;;5.32;3.10;;;;;;;-3.17;64.23;101526.97;6101854;23;20429;-79
2022/11/26 05:47:20;;;;;;;6.25;3.58;;;;;;;-3.31;63.76;101497.06;6126701;23;20060;-78
2022/11/26 05:49:45;;;;;;;6.70;3.60;;;;;;;-2.97;63.86;101540.31;6101185;23;20068;-80
2022/11/26 05:52:12;;;;;;;4.13;2.80;;;;;;;-3.04;63.84;101536.44;6126907;23;20428;-80
2022/11/26 05:54:38;;;;;;;7.45;3.35;;;;;;;-3.19;64.17;101521.78;6125345;23;20022;-80
2022/11/26 05:57:04;;;;;;;5.03;2.90;;;;;;;-2.89;64.27;101541.78;6101497;23;20105;-79
2022/11/26 05:59:30;;;;;;;9.82;5.40;;;;;;;-3.12;63.45;101479.81;6101113;23;20017;-81
2022/11/26 06:01:56;;;;;;;4.50;3.42;;;;;;;-2.77;63.04;101545.22;6100972;23;20014;-78
2022/11/26 06:04:22;;;;;;;4.45;2.88;;;;;;;-2.92;63.24;101513.50;6100351;23;20076;-82
2022/11/26 06:06:48;;;;;;;5.63;3.15;;;;;;;-2.76;63.68;101558.84;6126304;23;20092;-80
2022/11/26 06:09:14;;;;;;;15.55;6.43;;;;;;;-2.84;63.18;101558.28;6100163;23;20014;-80
2022/11/26 06:11:40;;;;;;;7.35;3.75;;;;;;;-3.34;62.83;101510.47;6100904;23;20010;-81
2022/11/26 06:14:13;;;;;;;10.32;4.88;;;;;;;-3.09;63.67;101542.88;6100711;23;20033;-80
2022/11/26 06:16:39;;;;;;;6.10;3.33;;;;;;;-3.13;62.85;101511.16;6076291;23;20041;-80
2022/11/26 06:19:05;;;;;;;5.93;2.60;;;;;;;-3.14;63.28;101519.56;6101664;23;20017;-80
2022/11/26 06:21:34;;;;;;;3.25;2.25;;;;;;;-4.03;61.59;101419.63;6076642;23;20018;-81
2022/11/26 06:24:02;;;;;;;5.28;3.13;;;;;;;-3.19;63.09;101559.09;6127869;23;20028;-82
2022/11/26 06:26:30;;;;;;;3.70;2.70;;;;;;;-3.40;62.38;101520.19;6106050;23;20017;-79
2022/11/26 06:28:56;;;;;;;4.90;2.50;;;;;;;-3.41;62.62;101537.09;6110300;23;20108;-82
2022/11/26 06:31:22;;;;;;;6.55;3.03;;;;;;;-3.32;62.96;101554.75;6058437;23;20018;-81
2022/11/26 06:34:37;;;;;;;6.45;3.47;;;;;;;-3.17;63.70;101567.72;6079151;23;20364;-82
2022/11/26 06:38:16;;;;;;;6.55;5.22;;;;;;;-3.17;63.88;101567.72;6129549;23;20298;-82
2022/11/26 06:41:10;;;;;;;7.68;4.82;;;;;;;-3.54;63.69;101493.69;6104799;23;20014;-81
2022/11/26 06:48:27;;;;;;;5.00;3.55;;;;;;;-4.29;63.63;101370.22;5987573;23;20016;-79
2022/11/26 06:50:53;;;;;;;5.13;3.15;;;;;;;-3.30;63.16;101531.94;6028187;23;20079;-82
2022/11/26 06:53:35;;;;;;;4.53;2.70;;;;;;;-3.10;62.45;101577.63;5991718;23;20152;-83
2022/11/26 06:56:03;;;;;;;8.80;3.60;;;;;;;-3.27;63.42;101539.81;6039526;23;20022;-82
2022/11/26 06:58:29;;;;;;;6.93;3.60;;;;;;;-3.14;62.22;101593.44;6019465;23;20036;-80
2022/11/26 07:00:56;;;;;;;6.28;4.18;;;;;;;-3.06;63.85;101589.81;6020478;23;20505;-81
2022/11/26 07:03:47;;;;;;;8.07;4.22;;;;;;;-3.03;63.41;101584.06;6046431;23;20050;-83
2022/11/26 07:06:20;;;;;;;8.43;4.00;;;;;;;-2.98;63.38;101564.03;6018316;23;20049;-82
2022/11/26 07:08:48;;;;;;;6.50;3.50;;;;;;;-2.68;63.04;101583.25;6041047;23;20098;-79
2022/11/26 07:11:50;;;;;;;7.18;4.13;;;;;;;-2.55;63.14;101577.38;6085092;23;20100;-85
2022/11/26 07:14:21;;;;;;;8.32;3.53;;;;;;;-3.27;62.55;101458.34;6119218;23;20014;-82
2022/11/26 07:16:47;;;;;;;4.55;3.00;;;;;;;-2.52;62.76;101571.59;6127570;23;20025;-80
2022/11/26 07:19:13;;;;;;;7.70;3.38;;;;;;;-2.72;62.18;101546.44;6077366;23;20017;-80
2022/11/26 07:21:40;;;;;;;8.52;3.33;;;;;;;-2.55;62.58;101584.13;6101044;23;20062;-82
2022/11/26 07:24:15;;;;;;;7.07;3.65;;;;;;;-2.74;62.46;101542.88;6077153;23;20018;-80
2022/11/26 07:26:41;;;;;;;6.70;3.55;;;;;;;-2.57;62.75;101553.44;6077038;23;20017;-81
2022/11/26 07:29:08;;;;;;;9.32;3.90;;;;;;;-2.36;62.47;101581.25;6102109;23;20026;-82
2022/11/26 07:31:42;;;;;;;6.35;3.25;;;;;;;-2.60;61.76;101583.81;6077352;23;20076;-80
2022/11/26 07:34:15;;;;;;;6.90;3.88;;;;;;;-3.46;62.51;101461.16;6104079;23;20018;-79
2022/11/26 07:36:46;;;;;;;10.02;3.70;;;;;;;-4.04;61.86;101369.53;6126350;23;20013;-79
2022/11/26 07:39:12;;;;;;;7.88;4.20;;;;;;;-2.65;62.53;101588.56;6104708;23;20099;-84
2022/11/26 07:42:08;;;;;;;6.13;3.30;;;;;;;-2.40;62.77;101584.38;6116540;23;20014;-81
2022/11/26 07:44:46;;;;;;;8.45;5.00;;;;;;;-3.10;62.33;101439.22;6105585;23;20065;-83
2022/11/26 07:47:12;;;;;;;8.10;4.07;;;;;;;-3.05;62.45;101443.84;6101094;23;20041;-81
2022/11/26 07:49:42;;;;;;;6.07;3.20;;;;;;;-2.18;62.52;101585.13;6101681;23;20029;-85
2022/11/26 07:52:17;;;;;;;7.45;3.47;;;;;;;-2.19;61.54;101591.00;6077737;23;20025;-81
2022/11/26 07:54:45;;;;;;;4.82;3.05;;;;;;;-2.66;62.20;101568.97;6132317;23;20029;-83
2022/11/26 07:57:11;;;;;;;6.78;3.20;;;;;;;-2.94;62.37;101515.06;6137539;23;20153;-80
2022/11/26 07:59:40;;;;;;;5.05;3.03;;;;;;;-2.55;62.23;101557.00;6104702;23;20129;-81
2022/11/26 08:02:12;;;;;;;5.78;3.17;;;;;;;-2.57;61.72;101577.25;6101581;23;20040;-83
2022/11/26 08:04:38;;;;;;;7.75;3.28;;;;;;;-2.59;62.11;101571.16;6102670;23;20463;-82
2022/11/26 08:07:05;;;;;;;9.18;3.75;;;;;;;-2.27;62.39;101604.84;6079533;23;20017;-83
2022/11/26 08:09:30;;;;;;;6.78;3.35;;;;;;;-2.21;61.80;101605.31;6078996;23;20096;-81
2022/11/26 08:13:05;;;;;;;6.47;3.47;;;;;;;-2.37;61.42;101616.06;6104403;23;20061;-81
2022/11/26 08:15:19;;;;;;;7.30;3.05;;;;;;;-3.42;60.99;101418.22;6102336;23;20018;-83
2022/11/26 08:17:48;;;;;;;5.72;2.85;;;;;;;-3.64;61.10;101370.81;6106367;23;20069;-82
2022/11/26 08:20:22;;;;;;;5.15;3.00;;;;;;;-2.45;61.00;101602.75;6108691;23;20076;-80
2022/11/26 08:22:50;;;;;;;5.30;2.65;;;;;;;-3.16;61.13;101555.91;6111215;23;20014;-83
2022/11/26 08:25:24;;;;;;;5.13;2.70;;;;;;;-3.15;61.92;101539.84;6109682;23;20017;-81
2022/11/26 08:28:09;;;;;;;6.57;3.78;;;;;;;-3.37;61.86;101495.84;6133316;23;20018;-81
2022/11/26 08:31:21;;;;;;;8.68;3.88;;;;;;;-2.63;62.25;101599.75;6088410;23;20018;-79
2022/11/26 08:34:26;;;;;;;5.82;3.22;;;;;;;-2.74;61.49;101567.50;6131421;23;20013;-80
2022/11/26 08:37:14;;;;;;;6.00;3.30;;;;;;;-3.71;61.91;101370.28;6108321;23;20467;-84
2022/11/26 08:39:40;;;;;;;9.45;4.20;;;;;;;-2.09;62.03;101604.41;6085909;23;20041;-81
2022/11/26 08:42:18;;;;;;;10.23;4.97;;;;;;;-2.14;62.59;101561.63;6110553;23;20014;-81
2022/11/26 08:45:08;;;;;;;12.20;5.68;;;;;;;-2.43;61.55;101501.75;6092068;23;20022;-80
2022/11/26 08:47:35;;;;;;;14.23;6.15;;;;;;;-2.07;60.83;101568.03;6110807;23;20029;-81
2022/11/26 08:50:01;;;;;;;11.38;5.80;;;;;;;-1.79;61.52;101607.34;6108976;23;20033;-86
2022/11/26 08:52:30;;;;;;;9.25;4.78;;;;;;;-2.05;61.13;101525.66;6111046;23;20053;-80
2022/11/26 08:54:57;;;;;;;7.43;4.20;;;;;;;-1.75;61.69;101573.63;6140264;23;20022;-80
2022/11/26 08:57:23;;;;;;;6.38;3.90;;;;;;;-1.65;60.18;101585.34;6092020;23;20020;-80
2022/11/26 08:59:53;;;;;;;14.15;6.80;;;;;;;-2.32;60.19;101499.09;6111290;23;20050;-80
2022/11/26 09:06:45;;;;;;;5.40;3.30;;;;;;;-2.58;60.96;101486.25;6012348;23;20098;-79
2022/11/26 09:09:26;;;;;;;5.57;3.80;;;;;;;-1.80;61.11;101613.25;6048604;23;20025;-84
2022/11/26 09:11:59;;;;;;;6.10;3.97;;;;;;;-1.87;58.92;101633.22;6088659;23;20037;-81
2022/11/26 09:14:47;;;;;;;7.15;3.92;;;;;;;-1.77;60.90;101603.25;6087639;23;20022;-82
2022/11/26 09:17:33;;;;;;;4.65;2.97;;;;;;;-1.70;60.68;101605.47;6109926;23;20415;-81
2022/11/26 09:19:59;;;;;;;6.10;3.33;;;;;;;-1.72;60.17;101623.22;6134915;23;20088;-86
2022/11/26 09:22:43;;;;;;;6.43;3.40;;;;;;;-3.12;60.35;101372.84;6136018;23;20041;-89
2022/11/26 09:25:21;;;;;;;6.15;3.58;;;;;;;-2.84;59.57;101481.84;6085122;23;20046;-81
2022/11/26 09:27:47;;;;;;;6.50;3.33;;;;;;;-1.91;60.94;101609.94;6130809;23;20022;-81
2022/11/26 09:30:15;;;;;;;6.63;3.85;;;;;;;-1.85;60.63;101584.84;6083474;23;20028;-84
2022/11/26 09:33:05;;;;;;;6.00;3.33;;;;;;;-1.79;60.89;101563.97;6137535;23;20014;-81
2022/11/26 09:35:32;;;;;;;5.43;3.35;;;;;;;-1.55;60.57;101606.50;6112229;23;20024;-81
2022/11/26 09:37:58;;;;;;;5.90;3.88;;;;;;;-2.60;59.73;101454.66;6111301;23;20022;-81
2022/11/26 09:41:02;;;;;;;5.28;3.60;;;;;;;-3.06;60.09;101358.00;6112400;23;20025;-81
2022/11/26 09:43:51;;;;;;;6.05;3.70;;;;;;;-2.04;60.83;101527.44;6110593;23;20042;-82
2022/11/26 09:46:55;;;;;;;5.97;3.25;;;;;;;-1.53;60.43;101604.06;6084800;23;20053;-82
2022/11/26 09:49:26;;;;;;;6.00;3.50;;;;;;;-1.52;60.65;101610.94;6085574;23;20038;-80
2022/11/26 09:51:58;;;;;;;5.50;3.60;;;;;;;-1.54;59.99;101590.41;6108434;23;20021;-82
2022/11/26 09:56:04;;;;;;;;;;;;;;;;;;;;;
2022/11/26 09:59:18;;;;;;;11.23;7.63;;;;;;;-1.25;59.02;101621.28;6067410;23;20042;-82
2022/11/26 10:01:50;;;;;;;5.30;2.90;;;;;;;-1.97;58.15;101493.00;6052006;23;20414;-85
2022/11/26 10:08:05;;;;;;;4.28;2.65;;;;;;;-1.61;60.04;101595.88;5990414;24;19914;-85
2022/11/26 10:11:22;;;;;;;5.93;3.10;;;;;;;-1.60;58.69;101596.78;6083186;23;20101;-86
2022/11/26 10:14:08;;;;;;;4.05;3.03;;;;;;;-2.05;59.71;101481.38;6086767;23;20085;-81
2022/11/26 10:17:07;;;;;;;6.20;3.35;;;;;;;-1.69;59.81;101528.09;6085159;23;20021;-82
2022/11/26 10:24:15;;;;;;;6.00;3.28;;;;;;;-1.05;59.49;101591.97;5968459;23;20132;-85
2022/11/26 10:26:42;;;;;;;5.93;2.78;;;;;;;-1.09;58.00;101597.66;6101461;23;20025;-81
2022/11/26 10:29:26;;;;;;;4.78;3.30;;;;;;;-1.28;59.27;101567.41;6128818;23;20029;-82
2022/11/26 10:31:59;;;;;;;5.88;3.03;;;;;;;-1.09;58.95;101592.56;6104083;23;20475;-81
2022/11/26 10:34:37;;;;;;;6.05;3.45;;;;;;;-1.15;59.73;101574.25;6128645;23;20029;-79
2022/11/26 10:37:03;;;;;;;5.93;3.33;;;;;;;-0.89;59.15;101588.78;6105510;23;20037;-79
2022/11/26 10:39:29;;;;;;;5.90;3.53;;;;;;;-1.02;58.37;101599.84;6105075;23;20076;-80
2022/11/26 10:41:55;;;;;;;6.82;3.65;;;;;;;-1.04;59.11;101610.75;6104883;23;20014;-82
2022/11/26 10:44:35;;;;;;;6.38;4.07;;;;;;;-1.22;58.99;101590.84;6104794;23;20349;-80
2022/11/26 10:47:33;;;;;;;5.75;3.72;;;;;;;-1.38;58.22;101597.47;6082404;23;20021;-82
2022/11/26 10:51:08;;;;;;;;;;;;;;;;;;;;;
2022/11/26 10:57:46;;;;;;;7.60;3.80;;;;;;;-1.46;58.86;101562.84;6056171;23;20050;-80
2022/11/26 11:00:30;;;;;;;6.78;4.15;;;;;;;-1.28;58.96;101598.06;6060142;23;20018;-82
2022/11/26 11:02:58;;;;;;;7.47;4.18;;;;;;;-1.32;59.11;101576.56;6141999;23;20017;-81
2022/11/26 11:05:33;;;;;;;6.78;3.92;;;;;;;-1.92;58.81;101478.91;6141737;23;20024;-83
2022/11/26 11:12:13;;;;;;;5.80;3.38;;;;;;;-1.64;58.35;101536.94;6052484;23;20050;-82
2022/11/26 11:14:40;;;;;;;6.57;3.88;;;;;;;-1.36;58.71;101612.88;5980311;24;20024;-78
2022/11/26 11:17:17;;;;;;;6.35;4.35;;;;;;;-1.42;58.71;101608.25;5955510;24;20020;-80
2022/11/26 11:19:43;;;;;;;6.70;4.40;;;;;;;-1.43;59.59;101596.25;6015449;23;20022;-78
2022/11/26 11:22:19;;;;;;;5.13;3.65;;;;;;;-1.64;58.54;101557.34;6059278;23;20015;-81
2022/11/26 11:24:46;;;;;;;6.53;4.07;;;;;;;-1.30;59.38;101607.31;6061052;23;20023;-80
2022/11/26 11:27:25;;;;;;;8.10;4.13;;;;;;;-1.48;58.27;101586.53;6060453;23;20023;-78
2022/11/26 11:29:51;;;;;;;5.82;3.58;;;;;;;-1.56;58.05;101608.97;6053092;23;20402;-81
2022/11/26 11:32:29;;;;;;;6.57;3.75;;;;;;;-1.78;58.75;101609.13;6046177;23;20048;-81
2022/11/26 11:35:12;;;;;;;6.43;3.70;;;;;;;-2.00;59.36;101582.09;6045679;23;20023;-82
2022/11/26 11:37:46;;;;;;;;;;;;;;;-1.74;59.61;101611.13;6046297;23;20015;-80
2022/11/26 11:40:22;;;;;;;7.35;4.85;;;;;;;-1.84;58.59;101617.25;6049148;23;19914;-83
2022/11/26 11:42:51;;;;;;;9.27;5.18;;;;;;;-1.89;58.50;101619.50;6022047;23;20011;-82
2022/11/26 11:45:28;;;;;;;6.95;4.20;;;;;;;-1.98;58.78;101594.19;6047276;23;20019;-81
2022/11/26 11:48:00;;;;;;;12.23;5.30;;;;;;;-1.93;58.60;101612.38;6050830;23;20047;-81
2022/11/26 11:50:34;;;;;;;11.65;4.90;;;;;;;-2.19;59.18;101573.16;6024742;23;20078;-84
2022/11/26 11:53:33;;;;;;;16.23;6.38;;;;;;;-2.15;59.01;101570.03;6025992;23;20027;-80
2022/11/26 11:56:30;;;;;;;9.95;5.40;;;;;;;-1.89;59.46;101600.72;6045706;23;20020;-83
2022/11/26 11:59:35;;;;;;;7.65;4.47;;;;;;;-1.87;59.91;101597.47;6027295;23;20019;-79
2022/11/26 12:02:30;;;;;;;6.95;4.07;;;;;;;-1.89;59.09;101604.19;6029186;23;20015;-79
2022/11/26 12:05:39;;;;;;;6.95;4.18;;;;;;;-1.92;59.11;101603.06;6050226;23;20019;-81
2022/11/26 12:08:33;;;;;;;7.68;4.00;;;;;;;-2.37;59.19;101536.13;6018458;23;20019;-80
2022/11/26 12:11:19;;;;;;;9.57;4.35;;;;;;;-2.04;59.71;101608.16;6044163;23;20105;-80
2022/11/26 12:14:00;;;;;;;15.18;7.15;;;;;;;-2.15;59.75;101590.44;6049163;23;20035;-82
2022/11/26 12:16:37;;;;;;;21.88;8.73;;;;;;;-2.18;58.47;101602.06;6030259;23;20034;-80
2022/11/26 12:19:20;;;;;;;32.63;12.48;;;;;;;-2.52;59.42;101535.91;6052255;23;20047;-81
2022/11/26 12:22:07;;;;;;;39.65;14.55;;;;;;;-2.68;58.80;101526.28;6030411;23;20031;-81